Time;durP1;ratioP1;P1;durP2;ratioP2;P2;SDS_P1;SDS_P2;PMS_P1;PMS_P2;Temp;Humidity;BMP_temperature;BMP_pressure;BME280_temperature;BME280_humidity;BME280_pressure;Samples;Min_cycle;Max_cycle;Signal;HPM_P1;HPM_P2
2021/06/01 00:00:51;;;;;;;;;;;22.40;35.20;;;;;;1528100;77;739;-73
2021/06/01 00:02:53;;;;;;;;;;;22.50;35.30;;;;;;1531941;76;809;-73
2021/06/01 00:04:55;;;;;;;;;;;22.40;35.10;;;;;;1534827;76;748;-74
2021/06/01 00:06:57;;;;;;;;;;;22.50;35.30;;;;;;1531237;76;787;-74
2021/06/01 00:08:59;;;;;;;;;;;22.40;35.20;;;;;;1520589;76;1120;-74
2021/06/01 00:11:01;;;;;;;;;;;22.50;35.30;;;;;;1530920;76;720;-74
2021/06/01 00:13:03;;;;;;;;;;;22.50;35.30;;;;;;1528244;77;674;-74
2021/06/01 00:15:05;;;;;;;;;;;22.40;34.90;;;;;;1527657;76;835;-71
2021/06/01 00:17:07;;;;;;;;;;;22.40;35.20;;;;;;1515628;76;730;-71
2021/06/01 00:19:09;;;;;;;;;;;22.40;35.00;;;;;;1515821;76;1952;-70
2021/06/01 00:21:11;;;;;;;;;;;22.40;35.20;;;;;;1526286;76;661;-70
2021/06/01 00:23:13;;;;;;;;;;;22.50;35.30;;;;;;1520145;76;746;-71
2021/06/01 00:25:15;;;;;;;;;;;22.40;35.20;;;;;;1518174;76;739;-66
2021/06/01 00:27:16;;;;;;;;;;;22.50;35.20;;;;;;1518329;76;785;-69
2021/06/01 00:29:18;;;;;;;;;;;22.40;35.20;;;;;;1521265;76;1151;-70
2021/06/01 00:31:20;;;;;;;;;;;22.40;35.20;;;;;;1521086;76;743;-70
2021/06/01 00:33:22;;;;;;;;;;;22.40;35.20;;;;;;1520434;76;801;-71
2021/06/01 00:35:24;;;;;;;;;;;22.50;35.40;;;;;;1521650;76;923;-72
2021/06/01 00:37:26;;;;;;;;;;;22.40;35.20;;;;;;1516822;76;708;-71
2021/06/01 00:39:28;;;;;;;;;;;22.50;35.50;;;;;;1517598;76;1949;-70
2021/06/01 00:41:30;;;;;;;;;;;22.40;35.20;;;;;;1514705;76;726;-71
2021/06/01 00:43:32;;;;;;;;;;;22.40;35.30;;;;;;1516031;76;760;-69
2021/06/01 00:45:34;;;;;;;;;;;22.40;35.30;;;;;;1523740;76;816;-69
2021/06/01 00:47:35;;;;;;;;;;;22.40;35.40;;;;;;1523173;76;747;-71
2021/06/01 00:49:37;;;;;;;;;;;22.40;35.30;;;;;;1521140;76;1168;-70
2021/06/01 00:51:39;;;;;;;;;;;22.40;35.30;;;;;;1518262;76;782;-69
2021/06/01 00:53:41;;;;;;;;;;;22.40;35.40;;;;;;1519837;76;737;-65
2021/06/01 00:55:43;;;;;;;;;;;22.40;35.30;;;;;;1516616;76;747;-70
2021/06/01 00:57:45;;;;;;;;;;;22.40;35.20;;;;;;1514491;76;694;-71
2021/06/01 00:59:47;;;;;;;;;;;22.40;35.00;;;;;;1522188;76;1951;-69
2021/06/01 01:01:48;;;;;;;;;;;22.40;35.00;;;;;;1527078;76;779;-68
2021/06/01 01:03:51;;;;;;;;;;;22.40;35.00;;;;;;1527828;76;851;-73
2021/06/01 01:06:02;;;;;;;;;;;22.30;35.20;;;;;;1516039;76;740;-71
2021/06/01 01:08:19;;;;;;;;;;;22.40;35.40;;;;;;1520437;76;1121;-72
2021/06/01 01:10:12;;;;;;;;;;;22.40;35.60;;;;;;1520536;76;1135;-70
2021/06/01 01:12:15;;;;;;;;;;;22.40;35.60;;;;;;1516176;76;861;-70
2021/06/01 01:14:18;;;;;;;;;;;22.40;35.70;;;;;;1516865;76;739;-71
2021/06/01 01:16:21;;;;;;;;;;;22.40;35.70;;;;;;1521872;76;723;-70
2021/06/01 01:18:23;;;;;;;;;;;22.40;35.70;;;;;;1521185;76;1942;-71
2021/06/01 01:20:26;;;;;;;;;;;22.40;35.70;;;;;;1517992;76;1158;-71
2021/06/01 01:22:28;;;;;;;;;;;22.40;35.70;;;;;;1520052;76;1894;-71
2021/06/01 01:24:44;;;;;;;;;;;22.40;35.50;;;;;;1525060;76;733;-72
2021/06/01 01:26:54;;;;;;;;;;;22.30;35.70;;;;;;1524497;76;725;-71
2021/06/01 01:29:13;;;;;;;;;;;22.40;35.70;;;;;;1519576;76;1189;-71
2021/06/01 01:31:16;;;;;;;;;;;22.40;35.70;;;;;;1525711;76;779;-71
2021/06/01 01:33:26;;;;;;;;;;;22.40;35.70;;;;;;1514369;76;1782;-71
2021/06/01 01:35:30;;;;;;;;;;;22.40;35.70;;;;;;1516165;76;713;-71
2021/06/01 01:37:33;;;;;;;;;;;22.40;35.60;;;;;;1513555;76;1191;-71
2021/06/01 01:39:44;;;;;;;;;;;22.40;35.50;;;;;;1521063;76;1924;-72
2021/06/01 01:41:38;;;;;;;;;;;22.40;35.50;;;;;;1516365;76;1641;-74
2021/06/01 01:43:41;;;;;;;;;;;22.40;35.50;;;;;;1522136;76;750;-74
2021/06/01 01:45:48;;;;;;;;;;;22.40;35.50;;;;;;1516696;76;784;-73
2021/06/01 01:49:54;;;;;;;;;;;22.40;35.50;;;;;;1516077;76;1128;-73
2021/06/01 01:51:57;;;;;;;;;;;22.40;35.40;;;;;;1521162;76;990;-70
2021/06/01 01:54:00;;;;;;;;;;;22.40;35.40;;;;;;1517061;76;762;-71
2021/06/01 01:56:02;;;;;;;;;;;22.40;35.40;;;;;;1515960;76;769;-72
2021/06/01 01:58:04;;;;;;;;;;;22.40;35.20;;;;;;1521082;76;773;-70
2021/06/01 02:00:09;;;;;;;;;;;22.40;35.30;;;;;;1524763;76;1949;-69
2021/06/01 02:02:11;;;;;;;;;;;22.40;35.40;;;;;;1517136;76;755;-70
2021/06/01 02:04:13;;;;;;;;;;;22.30;35.20;;;;;;1517373;76;743;-72
2021/06/01 02:06:15;;;;;;;;;;;22.40;35.30;;;;;;1519364;76;749;-75
2021/06/01 02:08:17;;;;;;;;;;;22.40;35.20;;;;;;1518837;76;715;-69
2021/06/01 02:10:19;;;;;;;;;;;22.40;35.20;;;;;;1514249;76;1148;-70
2021/06/01 02:12:20;;;;;;;;;;;22.30;35.20;;;;;;1517684;76;790;-70
2021/06/01 02:14:22;;;;;;;;;;;22.40;35.20;;;;;;1521166;76;792;-69
2021/06/01 02:16:24;;;;;;;;;;;22.40;35.20;;;;;;1528188;76;796;-69
2021/06/01 02:18:26;;;;;;;;;;;22.40;35.20;;;;;;1524640;76;1954;-71
2021/06/01 02:20:29;;;;;;;;;;;22.40;35.20;;;;;;1528732;76;1153;-70
2021/06/01 02:25:04;;;;;;;;;;;22.40;35.20;;;;;;1516556;76;818;-66
2021/06/01 02:27:26;;;;;;;;;;;22.40;35.20;;;;;;1520762;76;1400;-69
2021/06/01 02:29:35;;;;;;;;;;;22.40;35.20;;;;;;1525936;76;1132;-68
2021/06/01 02:31:39;;;;;;;;;;;22.30;35.20;;;;;;1518624;76;754;-68
2021/06/01 02:33:42;;;;;;;;;;;22.30;35.20;;;;;;1522582;76;1132;-67
2021/06/01 02:35:43;;;;;;;;;;;22.30;35.20;;;;;;1523193;76;757;-67
2021/06/01 02:37:47;;;;;;;;;;;22.40;35.10;;;;;;1525231;76;671;-70
2021/06/01 02:39:49;;;;;;;;;;;22.40;35.10;;;;;;1524272;76;1940;-68
2021/06/01 02:41:51;;;;;;;;;;;22.40;35.00;;;;;;1529714;76;796;-67
2021/06/01 02:43:53;;;;;;;;;;;22.40;35.10;;;;;;1532766;77;794;-68
2021/06/01 02:45:55;;;;;;;;;;;22.40;35.00;;;;;;1532911;76;833;-69
2021/06/01 02:47:57;;;;;;;;;;;22.40;35.00;;;;;;1533898;76;706;-68
2021/06/01 02:49:59;;;;;;;;;;;22.40;35.00;;;;;;1539892;74;218645;-65
2021/06/01 02:52:01;;;;;;;;;;;22.40;35.00;;;;;;1573337;74;779;-66
2021/06/01 02:54:02;;;;;;;;;;;22.40;35.00;;;;;;1571666;74;770;-65
2021/06/01 02:56:05;;;;;;;;;;;22.40;35.00;;;;;;1554122;76;727;-66
2021/06/01 02:58:07;;;;;;;;;;;22.40;35.00;;;;;;1573955;74;780;-66
2021/06/01 03:00:10;;;;;;;;;;;22.40;35.00;;;;;;1581242;74;1910;-66
2021/06/01 03:02:12;;;;;;;;;;;22.40;35.00;;;;;;1572603;74;942;-65
2021/06/01 03:04:14;;;;;;;;;;;22.40;35.00;;;;;;1579034;74;736;-66
2021/06/01 03:06:19;;;;;;;;;;;22.40;35.10;;;;;;1585445;74;769;-65
2021/06/01 03:08:28;;;;;;;;;;;22.40;35.10;;;;;;1580090;74;786;-66
2021/06/01 03:10:30;;;;;;;;;;;22.40;35.10;;;;;;1581937;74;1171;-67
2021/06/01 03:14:35;;;;;;;;;;;22.40;35.00;;;;;;1576555;74;856;-66
2021/06/01 03:16:37;;;;;;;;;;;22.40;35.20;;;;;;1587831;74;777;-66
2021/06/01 03:18:39;;;;;;;;;;;22.50;35.30;;;;;;1579216;74;700;-65
2021/06/01 03:20:41;;;;;;;;;;;22.50;35.30;;;;;;1580739;74;1956;-64
2021/06/01 03:22:43;;;;;;;;;;;22.40;35.20;;;;;;1576430;74;813;-66
2021/06/01 03:24:45;;;;;;;;;;;22.40;35.20;;;;;;1574923;74;664;-67
2021/06/01 03:26:46;;;;;;;;;;;22.40;35.30;;;;;;1572374;74;793;-68
2021/06/01 03:28:48;;;;;;;;;;;22.40;35.40;;;;;;1571666;74;755;-67
2021/06/01 03:30:50;;;;;;;;;;;22.40;35.50;;;;;;1575248;74;1164;-66
2021/06/01 03:32:55;;;;;;;;;;;22.40;35.40;;;;;;1579591;74;796;-67
2021/06/01 03:34:56;;;;;;;;;;;22.40;35.50;;;;;;1581569;74;1549;-66
2021/06/01 03:36:58;;;;;;;;;;;22.40;35.50;;;;;;1571581;74;761;-67
2021/06/01 03:39:03;;;;;;;;;;;22.40;35.60;;;;;;1581328;74;1933;-67
2021/06/01 03:41:04;;;;;;;;;;;22.40;35.50;;;;;;1586389;74;1591;-67
2021/06/01 03:43:06;;;;;;;;;;;22.40;35.50;;;;;;1569501;74;750;-66
2021/06/01 03:45:08;;;;;;;;;;;22.40;35.50;;;;;;1567486;74;795;-66
2021/06/01 03:47:10;;;;;;;;;;;22.40;35.50;;;;;;1570647;74;786;-66
2021/06/01 03:49:12;;;;;;;;;;;22.40;35.60;;;;;;1574470;74;1160;-67
2021/06/01 03:51:14;;;;;;;;;;;22.40;35.50;;;;;;1569730;74;761;-67
2021/06/01 03:53:16;;;;;;;;;;;22.40;35.40;;;;;;1571802;74;807;-67
2021/06/01 03:55:18;;;;;;;;;;;22.30;35.30;;;;;;1573083;74;984;-65
2021/06/01 03:57:20;;;;;;;;;;;22.30;35.20;;;;;;1569404;74;821;-67
2021/06/01 03:59:21;;;;;;;;;;;22.40;35.50;;;;;;1569693;74;1937;-66
2021/06/01 04:01:24;;;;;;;;;;;22.40;35.50;;;;;;1569492;74;830;-67
2021/06/01 04:03:26;;;;;;;;;;;22.40;35.60;;;;;;1566375;74;710;-66
2021/06/01 04:05:28;;;;;;;;;;;22.50;35.60;;;;;;1566565;74;762;-65
2021/06/01 04:07:30;;;;;;;;;;;22.40;35.60;;;;;;1569257;74;727;-66
2021/06/01 04:09:32;;;;;;;;;;;22.40;35.70;;;;;;1569631;74;1138;-66
2021/06/01 04:11:34;;;;;;;;;;;22.40;35.70;;;;;;1572317;74;766;-66
2021/06/01 04:13:36;;;;;;;;;;;22.40;35.70;;;;;;1572483;74;796;-66
2021/06/01 04:15:37;;;;;;;;;;;22.40;35.60;;;;;;1571394;74;760;-66
2021/06/01 04:17:39;;;;;;;;;;;22.40;35.60;;;;;;1572562;74;762;-68
2021/06/01 04:19:41;;;;;;;;;;;22.40;35.70;;;;;;1573655;74;1954;-67
2021/06/01 04:21:43;;;;;;;;;;;22.50;35.70;;;;;;1575448;74;760;-66
2021/06/01 04:23:45;;;;;;;;;;;22.40;35.60;;;;;;1570812;74;864;-66
2021/06/01 04:25:47;;;;;;;;;;;22.50;35.80;;;;;;1572124;74;775;-67
2021/06/01 04:27:49;;;;;;;;;;;22.40;35.70;;;;;;1571229;74;731;-66
2021/06/01 04:29:51;;;;;;;;;;;22.40;35.70;;;;;;1574789;74;1109;-66
2021/06/01 04:31:52;;;;;;;;;;;22.50;35.80;;;;;;1574084;74;780;-67
2021/06/01 04:33:54;;;;;;;;;;;22.50;35.80;;;;;;1574186;74;664;-66
2021/06/01 04:35:56;;;;;;;;;;;22.50;35.80;;;;;;1572697;74;790;-66
2021/06/01 04:37:58;;;;;;;;;;;22.40;35.70;;;;;;1576009;74;787;-66
2021/06/01 04:40:00;;;;;;;;;;;22.50;35.80;;;;;;1572087;74;1952;-66
2021/06/01 04:42:02;;;;;;;;;;;22.50;35.80;;;;;;1570954;74;763;-67
2021/06/01 04:44:04;;;;;;;;;;;22.50;35.80;;;;;;1569714;74;766;-66
2021/06/01 04:46:06;;;;;;;;;;;22.40;35.70;;;;;;1573310;74;788;-66
2021/06/01 04:48:08;;;;;;;;;;;22.40;35.80;;;;;;1571781;74;878;-66
2021/06/01 04:50:10;;;;;;;;;;;22.40;35.90;;;;;;1572028;74;1066;-67
2021/06/01 04:52:12;;;;;;;;;;;22.40;35.90;;;;;;1571318;74;806;-65
2021/06/01 04:54:14;;;;;;;;;;;22.40;35.90;;;;;;1570909;74;680;-66
2021/06/01 04:56:16;;;;;;;;;;;22.40;35.90;;;;;;1570873;74;833;-66
2021/06/01 04:58:18;;;;;;;;;;;22.40;36.00;;;;;;1572089;74;797;-67
2021/06/01 05:00:20;;;;;;;;;;;22.40;35.90;;;;;;1571090;74;1950;-67
2021/06/01 05:02:21;;;;;;;;;;;22.50;36.00;;;;;;1574047;74;751;-65
2021/06/01 05:04:23;;;;;;;;;;;22.40;35.90;;;;;;1571989;74;734;-65
2021/06/01 05:06:25;;;;;;;;;;;22.50;36.00;;;;;;1572675;74;736;-66
2021/06/01 05:08:27;;;;;;;;;;;22.50;36.10;;;;;;1566947;74;816;-66
2021/06/01 05:10:29;;;;;;;;;;;22.50;36.10;;;;;;1568092;74;1196;-66
2021/06/01 05:12:31;;;;;;;;;;;22.40;35.90;;;;;;1569369;74;727;-66
2021/06/01 05:14:33;;;;;;;;;;;22.30;35.90;;;;;;1572171;74;836;-67
2021/06/01 05:16:35;;;;;;;;;;;22.40;36.00;;;;;;1575871;74;799;-65
2021/06/01 05:18:36;;;;;;;;;;;22.40;35.90;;;;;;1574003;74;834;-66
2021/06/01 05:20:38;;;;;;;;;;;22.50;36.10;;;;;;1565341;74;1938;-66
2021/06/01 05:22:40;;;;;;;;;;;22.50;36.00;;;;;;1574095;74;767;-66
2021/06/01 05:24:42;;;;;;;;;;;22.50;36.10;;;;;;1571549;74;735;-66
2021/06/01 05:26:44;;;;;;;;;;;22.50;36.20;;;;;;1569988;74;647;-65
2021/06/01 05:28:47;;;;;;;;;;;22.50;36.20;;;;;;1575037;74;726;-65
2021/06/01 05:31:03;;;;;;;;;;;22.50;36.20;;;;;;1574091;74;1143;-66
2021/06/01 05:33:12;;;;;;;;;;;22.50;36.20;;;;;;1570788;74;1807;-66
2021/06/01 05:35:26;;;;;;;;;;;22.50;36.30;;;;;;1573679;74;1636;-65
2021/06/01 05:37:31;;;;;;;;;;;22.50;36.30;;;;;;1568022;74;1713;-67
2021/06/01 05:39:32;;;;;;;;;;;22.50;36.30;;;;;;1569566;74;1164;-65
2021/06/01 05:41:34;;;;;;;;;;;22.40;36.20;;;;;;1569619;74;1944;-67
2021/06/01 05:43:38;;;;;;;;;;;22.50;36.40;;;;;;1570905;74;787;-65
2021/06/01 05:45:40;;;;;;;;;;;22.50;36.40;;;;;;1564151;74;808;-65
2021/06/01 05:47:42;;;;;;;;;;;22.50;36.40;;;;;;1569515;74;783;-66
2021/06/01 05:49:44;;;;;;;;;;;22.50;36.40;;;;;;1569698;74;1151;-66
2021/06/01 05:51:46;;;;;;;;;;;22.50;36.40;;;;;;1569713;74;789;-64
2021/06/01 05:53:47;;;;;;;;;;;22.60;36.50;;;;;;1572824;74;674;-66
2021/06/01 05:55:49;;;;;;;;;;;22.50;36.60;;;;;;1565957;74;666;-66
2021/06/01 05:57:51;;;;;;;;;;;22.40;36.50;;;;;;1569560;74;745;-66
2021/06/01 05:59:53;;;;;;;;;;;22.40;36.30;;;;;;1569874;74;1962;-66
2021/06/01 06:01:55;;;;;;;;;;;22.50;36.30;;;;;;1569802;74;746;-66
2021/06/01 06:03:57;;;;;;;;;;;22.50;36.30;;;;;;1566310;74;720;-66
2021/06/01 06:06:00;;;;;;;;;;;22.50;36.20;;;;;;1572127;74;874;-70
2021/06/01 06:08:05;;;;;;;;;;;22.50;36.20;;;;;;1570761;74;747;-69
2021/06/01 06:10:08;;;;;;;;;;;22.50;36.00;;;;;;1570742;74;1211;-68
2021/06/01 06:12:10;;;;;;;;;;;22.50;35.90;;;;;;1567439;74;702;-68
2021/06/01 06:14:12;;;;;;;;;;;22.50;35.90;;;;;;1576426;74;733;-68
2021/06/01 06:16:18;;;;;;;;;;;22.50;36.00;;;;;;1567645;74;785;-68
2021/06/01 06:18:25;;;;;;;;;;;22.50;36.00;;;;;;1569705;74;1177;-65
2021/06/01 06:20:27;;;;;;;;;;;22.50;35.90;;;;;;1569342;74;1950;-65
2021/06/01 06:22:28;;;;;;;;;;;22.40;36.20;;;;;;1572901;74;756;-65
2021/06/01 06:24:30;;;;;;;;;;;22.30;36.40;;;;;;1571776;74;745;-65
2021/06/01 06:26:32;;;;;;;;;;;22.20;36.70;;;;;;1570151;74;769;-65
2021/06/01 06:28:34;;;;;;;;;;;22.20;36.70;;;;;;1573579;74;674;-66
2021/06/01 06:30:36;;;;;;;;;;;22.30;36.50;;;;;;1577062;74;1199;-66
2021/06/01 06:32:38;;;;;;;;;;;22.40;36.10;;;;;;1580207;74;688;-65
2021/06/01 06:34:40;;;;;;;;;;;22.50;36.20;;;;;;1565255;74;802;-65
2021/06/01 06:36:42;;;;;;;;;;;22.50;36.00;;;;;;1575656;74;751;-65
2021/06/01 06:38:46;;;;;;;;;;;22.50;35.90;;;;;;1578033;74;679;-65
2021/06/01 06:41:11;;;;;;;;;;;22.50;35.70;;;;;;1583894;74;1948;-67
2021/06/01 06:43:02;;;;;;;;;;;22.50;35.70;;;;;;1565994;74;1682;-67
2021/06/01 06:45:06;;;;;;;;;;;22.50;35.70;;;;;;1567007;74;777;-67
2021/06/01 06:49:14;;;;;;;;;;;22.50;35.60;;;;;;1569331;74;1140;-66
2021/06/01 06:51:16;;;;;;;;;;;22.50;35.50;;;;;;1570914;74;874;-67
2021/06/01 06:53:18;;;;;;;;;;;22.50;35.50;;;;;;1567227;74;787;-65
2021/06/01 06:55:20;;;;;;;;;;;22.40;35.50;;;;;;1569707;74;780;-65
2021/06/01 06:57:22;;;;;;;;;;;22.50;35.60;;;;;;1569750;74;806;-66
2021/06/01 06:59:23;;;;;;;;;;;22.50;35.50;;;;;;1570745;74;1192;-64
2021/06/01 07:01:27;;;;;;;;;;;22.40;35.30;;;;;;1572040;74;1937;-69
2021/06/01 07:03:29;;;;;;;;;;;22.50;35.40;;;;;;1569627;74;783;-67
2021/06/01 07:05:31;;;;;;;;;;;22.50;35.30;;;;;;1569144;74;794;-67
2021/06/01 07:07:33;;;;;;;;;;;22.50;35.20;;;;;;1576372;74;772;-68
2021/06/01 07:09:38;;;;;;;;;;;22.50;35.10;;;;;;1572783;74;1082;-68
2021/06/01 07:11:38;;;;;;;;;;;22.50;35.00;;;;;;1567588;74;1786;-69
2021/06/01 07:13:48;;;;;;;;;;;22.50;34.90;;;;;;1566863;74;805;-68
2021/06/01 07:15:48;;;;;;;;;;;22.50;34.80;;;;;;1572445;74;1599;-68
2021/06/01 07:17:54;;;;;;;;;;;22.40;34.60;;;;;;1541049;76;789;-67
2021/06/01 07:19:57;;;;;;;;;;;22.40;34.60;;;;;;1571961;74;1149;-68
2021/06/01 07:21:59;;;;;;;;;;;22.50;34.50;;;;;;1573073;74;1938;-67
2021/06/01 07:24:01;;;;;;;;;;;22.50;34.40;;;;;;1573020;74;724;-67
2021/06/01 07:26:03;;;;;;;;;;;22.50;34.40;;;;;;1579126;74;737;-67
2021/06/01 07:28:05;;;;;;;;;;;22.40;34.20;;;;;;1573422;74;746;-68
2021/06/01 07:30:12;;;;;;;;;;;22.40;34.40;;;;;;1578892;74;1198;-67
2021/06/01 07:32:11;;;;;;;;;;;22.50;34.20;;;;;;1575721;74;1577;-66
2021/06/01 07:34:13;;;;;;;;;;;22.70;34.20;;;;;;1572561;74;737;-66
2021/06/01 07:36:15;;;;;;;;;;;22.70;34.00;;;;;;1564321;74;730;-66
2021/06/01 07:38:17;;;;;;;;;;;22.90;33.90;;;;;;1575467;74;693;-66
2021/06/01 07:40:18;;;;;;;;;;;22.90;33.90;;;;;;1580586;74;1931;-65
2021/06/01 07:42:20;;;;;;;;;;;23.00;33.70;;;;;;1576165;74;915;-66
2021/06/01 07:44:22;;;;;;;;;;;23.00;33.50;;;;;;1568889;74;796;-67
2021/06/01 07:46:24;;;;;;;;;;;23.00;33.50;;;;;;1572357;74;776;-68
2021/06/01 07:48:26;;;;;;;;;;;23.10;33.50;;;;;;1569743;74;718;-66
2021/06/01 07:50:28;;;;;;;;;;;23.10;33.30;;;;;;1563004;74;1142;-65
2021/06/01 07:52:30;;;;;;;;;;;23.20;33.30;;;;;;1569595;74;792;-66
2021/06/01 07:54:32;;;;;;;;;;;23.10;33.10;;;;;;1571857;74;830;-65
2021/06/01 07:56:35;;;;;;;;;;;23.20;32.80;;;;;;1577338;74;745;-65
2021/06/01 07:58:36;;;;;;;;;;;23.30;32.60;;;;;;1571268;74;787;-66
2021/06/01 08:00:38;;;;;;;;;;;23.20;32.30;;;;;;1567638;74;1930;-65
2021/06/01 08:02:40;;;;;;;;;;;23.20;32.10;;;;;;1566185;74;768;-65
2021/06/01 08:04:42;;;;;;;;;;;23.20;31.70;;;;;;1574349;74;1067;-65
2021/06/01 08:06:44;;;;;;;;;;;23.20;31.50;;;;;;1570666;74;792;-65
2021/06/01 08:08:46;;;;;;;;;;;23.30;31.40;;;;;;1570006;74;759;-65
2021/06/01 08:10:50;;;;;;;;;;;23.20;31.20;;;;;;1569767;74;1132;-65
2021/06/01 08:12:53;;;;;;;;;;;23.20;30.90;;;;;;1567449;74;707;-68
2021/06/01 08:14:57;;;;;;;;;;;23.20;31.10;;;;;;1572237;74;750;-64
2021/06/01 08:16:59;;;;;;;;;;;23.30;30.90;;;;;;1570280;74;807;-66
2021/06/01 08:19:13;;;;;;;;;;;23.20;30.90;;;;;;1571150;74;1179;-64
2021/06/01 08:21:14;;;;;;;;;;;23.30;30.90;;;;;;1569256;74;1939;-65
2021/06/01 08:23:14;;;;;;;;;;;23.30;30.80;;;;;;1572534;74;1708;-66
2021/06/01 08:25:16;;;;;;;;;;;23.30;30.80;;;;;;1573091;74;870;-66
2021/06/01 08:27:18;;;;;;;;;;;23.30;30.80;;;;;;1567281;74;768;-62
2021/06/01 08:29:20;;;;;;;;;;;23.40;30.60;;;;;;1573067;74;1136;-66
2021/06/01 08:31:22;;;;;;;;;;;23.30;30.50;;;;;;1569876;74;771;-66
2021/06/01 08:33:24;;;;;;;;;;;23.40;30.50;;;;;;1567918;74;817;-65
2021/06/01 08:35:26;;;;;;;;;;;23.40;30.70;;;;;;1575805;74;798;-65
2021/06/01 08:37:27;;;;;;;;;;;23.30;30.70;;;;;;1573476;74;679;-65
2021/06/01 08:39:29;;;;;;;;;;;23.40;30.60;;;;;;1573029;74;1165;-65
2021/06/01 08:41:32;;;;;;;;;;;23.40;30.60;;;;;;1570481;74;1921;-68
2021/06/01 08:43:34;;;;;;;;;;;23.40;30.40;;;;;;1569554;74;724;-66
2021/06/01 08:45:35;;;;;;;;;;;23.30;30.20;;;;;;1569375;74;733;-68
2021/06/01 08:47:41;;;;;;;;;;;23.30;30.00;;;;;;1568598;74;973;-64
2021/06/01 08:49:42;;;;;;;;;;;23.30;30.20;;;;;;1570752;74;2057;-68
2021/06/01 08:51:44;;;;;;;;;;;23.30;30.00;;;;;;1567805;75;695;-68
2021/06/01 08:53:47;;;;;;;;;;;23.30;30.20;;;;;;1572637;74;699;-68
2021/06/01 08:55:49;;;;;;;;;;;23.40;30.20;;;;;;1565980;74;709;-68
2021/06/01 08:57:51;;;;;;;;;;;23.20;30.00;;;;;;1565776;74;712;-68
2021/06/01 08:59:53;;;;;;;;;;;23.20;29.90;;;;;;1560718;74;1216;-68
2021/06/01 09:01:55;;;;;;;;;;;23.30;30.00;;;;;;1531165;76;2087;-70
2021/06/01 09:04:05;;;;;;;;;;;23.30;29.90;;;;;;1527744;76;790;-68
2021/06/01 09:08:44;;;;;;;;;;;23.30;30.10;;;;;;1517591;76;1676;-68
2021/06/01 09:11:04;;;;;;;;;;;23.30;30.00;;;;;;1517996;76;1712;-68
2021/06/01 09:15:46;;;;;;;;;;;23.30;30.30;;;;;;1528907;76;1546;-68
2021/06/01 09:22:09;;;;;;;;;;;23.20;30.30;;;;;;1523935;76;1924;-67
2021/06/01 09:24:11;;;;;;;;;;;23.20;30.70;;;;;;1523114;76;737;-67
2021/06/01 09:26:13;;;;;;;;;;;23.20;30.60;;;;;;1523562;76;823;-68
2021/06/01 09:28:15;;;;;;;;;;;23.20;30.60;;;;;;1532326;76;731;-70
2021/06/01 09:30:35;;;;;;;;;;;23.20;30.40;;;;;;1534721;76;1125;-69
2021/06/01 09:32:43;;;;;;;;;;;23.20;30.30;;;;;;1544239;76;728;-69
2021/06/01 09:34:52;;;;;;;;;;;23.20;30.40;;;;;;1530921;76;763;-69
2021/06/01 09:36:54;;;;;;;;;;;23.20;30.50;;;;;;1539204;76;846;-70
2021/06/01 09:38:56;;;;;;;;;;;23.30;30.70;;;;;;1533035;76;706;-68
2021/06/01 09:41:11;;;;;;;;;;;23.40;30.50;;;;;;1527684;76;1137;-69
2021/06/01 09:43:16;;;;;;;;;;;23.30;30.40;;;;;;1530519;76;869;-68
2021/06/01 09:45:20;;;;;;;;;;;23.20;30.40;;;;;;1544008;76;863;-73
2021/06/01 09:47:22;;;;;;;;;;;23.30;30.50;;;;;;1532814;76;781;-70
2021/06/01 09:49:24;;;;;;;;;;;23.30;30.60;;;;;;1517016;76;1359;-70
2021/06/01 09:51:27;;;;;;;;;;;23.20;30.60;;;;;;1553148;74;754;-72
2021/06/01 09:53:33;;;;;;;;;;;23.30;30.80;;;;;;1562166;74;802;-70
2021/06/01 09:55:36;;;;;;;;;;;23.20;30.50;;;;;;1550966;75;1726;-69
2021/06/01 09:57:39;;;;;;;;;;;23.20;30.30;;;;;;1553150;75;845;-73
2021/06/01 09:59:41;;;;;;;;;;;23.20;30.60;;;;;;1558223;74;1971;-67
2021/06/01 10:01:43;;;;;;;;;;;23.30;30.70;;;;;;1551545;75;1914;-69
2021/06/01 10:03:50;;;;;;;;;;;23.20;30.60;;;;;;1566143;74;797;-68
2021/06/01 10:05:57;;;;;;;;;;;23.20;30.20;;;;;;1543411;75;1701;-69
2021/06/01 10:07:57;;;;;;;;;;;23.20;30.30;;;;;;1540008;75;1355;-69
2021/06/01 10:09:59;;;;;;;;;;;23.20;30.40;;;;;;1538309;75;1176;-72
2021/06/01 10:12:01;;;;;;;;;;;23.20;30.50;;;;;;1542415;76;749;-73
2021/06/01 10:14:03;;;;;;;;;;;23.20;30.20;;;;;;1537546;75;787;-73
2021/06/01 10:16:09;;;;;;;;;;;23.30;29.90;;;;;;1549055;75;715;-70
2021/06/01 10:18:13;;;;;;;;;;;23.20;29.70;;;;;;1542299;75;690;-71
2021/06/01 10:20:15;;;;;;;;;;;23.20;29.80;;;;;;1537224;75;1179;-74
2021/06/01 10:22:17;;;;;;;;;;;23.10;29.80;;;;;;1561639;75;1940;-74
2021/06/01 10:24:19;;;;;;;;;;;23.30;29.70;;;;;;1559771;75;808;-70
2021/06/01 10:26:24;;;;;;;;;;;23.10;29.60;;;;;;1547741;75;795;-72
2021/06/01 10:28:32;;;;;;;;;;;23.00;30.10;;;;;;1545674;75;1667;-72
2021/06/01 10:30:29;;;;;;;;;;;23.10;30.20;;;;;;1548151;75;1222;-72
2021/06/01 10:32:31;;;;;;;;;;;23.10;30.40;;;;;;1542334;75;889;-71
2021/06/01 10:34:33;;;;;;;;;;;23.10;30.20;;;;;;1554326;75;711;-72
2021/06/01 10:50:31;;;;;;;;;;;23.10;30.10;;;;;;1536495;76;1161;-74
2021/06/01 10:52:31;;;;;;;;;;;23.00;29.90;;;;;;1540641;75;1547;-74
2021/06/01 10:54:38;;;;;;;;;;;23.00;30.00;;;;;;1533238;75;799;-75
2021/06/01 10:56:47;;;;;;;;;;;23.00;30.20;;;;;;1541685;75;689;-75
2021/06/01 10:58:53;;;;;;;;;;;23.00;30.30;;;;;;1542855;75;1716;-75
2021/06/01 11:03:19;;;;;;;;;;;23.00;30.50;;;;;;1530177;75;1868;-75
2021/06/01 11:05:21;;;;;;;;;;;22.90;30.70;;;;;;1555423;75;726;-75
2021/06/01 11:07:40;;;;;;;;;;;22.90;31.00;;;;;;1550316;75;702;-77
2021/06/01 11:09:37;;;;;;;;;;;23.00;31.40;;;;;;1555150;75;1175;-73
2021/06/01 11:11:39;;;;;;;;;;;23.10;31.80;;;;;;1552668;75;970;-75
2021/06/01 11:13:41;;;;;;;;;;;22.90;32.10;;;;;;1555209;75;663;-75
2021/06/01 11:15:43;;;;;;;;;;;22.90;31.90;;;;;;1551238;75;866;-74
2021/06/01 11:17:45;;;;;;;;;;;23.00;31.90;;;;;;1524307;76;1192;-78
2021/06/01 11:19:51;;;;;;;;;;;23.00;31.60;;;;;;1543853;75;1191;-73
2021/06/01 11:22:03;;;;;;;;;;;23.00;31.50;;;;;;1554533;75;1932;-74
2021/06/01 11:32:47;;;;;;;;;;;22.90;31.50;;;;;;1546867;75;740;-76
2021/06/01 11:33:28;;;;;;;;;;;22.90;31.60;;;;;;1537663;75;1671;-75
2021/06/01 11:35:32;;;;;;;;;;;22.90;31.60;;;;;;1543263;75;743;-77
2021/06/01 11:37:39;;;;;;;;;;;23.00;31.50;;;;;;1552630;75;1812;-75
2021/06/01 11:39:56;;;;;;;;;;;22.90;31.60;;;;;;1525081;76;1161;-75
2021/06/01 11:43:53;;;;;;;;;;;22.90;31.70;;;;;;1550463;75;998;-75
2021/06/01 11:52:36;;;;;;;;;;;23.00;32.70;;;;;;1555284;75;791;-75
2021/06/01 11:54:37;;;;;;;;;;;23.00;33.40;;;;;;1544275;75;855;-76
2021/06/01 12:03:53;;;;;;;;;;;23.10;35.20;;;;;;1536056;75;1853;-75
2021/06/01 12:17:31;;;;;;;;;;;22.90;34.50;;;;;;1539752;76;1604;-75
2021/06/01 12:19:34;;;;;;;;;;;22.90;34.40;;;;;;1546826;75;1183;-75
2021/06/01 12:21:40;;;;;;;;;;;23.00;34.20;;;;;;1547702;75;972;-83
2021/06/01 12:23:48;;;;;;;;;;;22.90;34.00;;;;;;1549104;75;1894;-75
2021/06/01 12:25:59;;;;;;;;;;;23.00;33.90;;;;;;1544244;75;1675;-76
2021/06/01 12:28:10;;;;;;;;;;;23.10;34.00;;;;;;1556747;75;688;-76
2021/06/01 12:32:33;;;;;;;;;;;22.90;33.60;;;;;;1551758;75;1630;-72
2021/06/01 12:34:48;;;;;;;;;;;22.70;32.30;;;;;;1546992;75;780;-71
2021/06/01 12:42:10;;;;;;;;;;;22.30;30.90;;;;;;1550033;75;1675;-69
2021/06/01 12:43:51;;;;;;;;;;;22.30;31.00;;;;;;1537048;76;1915;-72
2021/06/01 12:46:45;;;;;;;;;;;22.20;30.00;;;;;;1533482;75;1154;-69
2021/06/01 13:20:18;;;;;;;;;;;22.00;31.20;;;;;;1563749;75;1232;-71
2021/06/01 13:22:43;;;;;;;;;;;21.90;31.20;;;;;;1555429;75;1933;-70
2021/06/01 13:38:29;;;;;;;;;;;21.80;30.90;;;;;;1562081;75;1626;-71
2021/06/01 13:40:51;;;;;;;;;;;21.90;31.20;;;;;;1559187;75;1662;-70
2021/06/01 13:47:24;;;;;;;;;;;21.80;30.40;;;;;;1549132;75;1624;-70
2021/06/01 13:49:34;;;;;;;;;;;21.80;30.50;;;;;;1556466;75;1665;-73
2021/06/01 13:51:41;;;;;;;;;;;21.90;31.00;;;;;;1555967;75;1729;-70
2021/06/01 13:56:09;;;;;;;;;;;22.00;29.80;;;;;;1553315;75;862;-70
2021/06/01 13:58:26;;;;;;;;;;;21.90;30.50;;;;;;1533384;75;1709;-70
2021/06/01 14:00:21;;;;;;;;;;;21.90;30.70;;;;;;1546553;75;1681;-70
2021/06/01 15:03:57;;;;;;;;;;;21.70;30.00;;;;;;1504682;78;1601;-67
2021/06/01 15:29:19;;;;;;;;;;;21.70;29.30;;;;;;1477435;79;1635;-66
2021/06/01 15:49:36;;;;;;;;;;;21.70;29.20;;;;;;1475533;79;1627;-66
2021/06/01 15:54:05;;;;;;;;;;;21.70;29.70;;;;;;1461778;79;860;-65
2021/06/01 16:12:25;;;;;;;;;;;21.60;28.90;;;;;;1502966;78;1636;-67
2021/06/01 16:14:43;;;;;;;;;;;21.60;28.70;;;;;;1489837;78;1669;-66
2021/06/01 16:23:34;;;;;;;;;;;21.50;28.80;;;;;;1472739;78;1924;-67
2021/06/01 16:30:24;;;;;;;;;;;21.60;29.20;;;;;;1500524;78;1645;-67
2021/06/01 16:43:48;;;;;;;;;;;21.60;29.00;;;;;;1482594;79;1918;-67
2021/06/01 17:04:40;;;;;;;;;;;21.80;29.00;;;;;;1476333;79;1898;-65
2021/06/01 17:06:52;;;;;;;;;;;21.80;28.90;;;;;;1471267;79;1655;-66
2021/06/01 17:11:29;;;;;;;;;;;21.60;28.40;;;;;;1459869;79;1966;-66